Time,TemperatureF,DewpointF,PressureIn,WindDirection,WindDirectionDegrees,WindSpeedMPH,WindSpeedGustMPH,Humidity,HourlyPrecipIn,Conditions,Clouds,dailyrainin,SolarRadiationWatts/m^2,SoftwareType,DateUTC
2013-03-23 00:02:00,22.0,14.0,-100.00,ENE,64,0.0,4.0,70,0.00,,,0.00,0.000000,,2013-03-23 08:02:00,
2013-03-23 00:12:00,22.0,14.0,-100.00,ENE,64,0.0,4.0,70,0.00,,,0.00,0.000000,,2013-03-23 08:12:00,
2013-03-23 00:42:00,24.0,18.0,-100.00,WSW,239,3.0,10.0,76,0.00,,,0.00,0.000000,,2013-03-23 08:42:00,
2013-03-23 00:52:00,24.0,18.0,-100.00,WSW,239,3.0,10.0,76,0.00,,,0.00,0.000000,,2013-03-23 08:52:00,
2013-03-23 01:02:00,24.0,18.0,-100.00,WSW,239,3.0,10.0,76,0.00,,,0.00,0.000000,,2013-03-23 09:02:00,
2013-03-23 01:12:00,24.0,18.0,-100.00,WSW,239,3.0,10.0,76,0.00,,,0.00,0.000000,,2013-03-23 09:12:00,
2013-03-23 01:43:00,20.0,18.0,-100.00,WSW,246,4.0,9.0,90,0.00,,,-99.99,0.000000,,2013-03-23 09:43:00,
2013-03-23 01:53:00,20.0,18.0,-100.00,WSW,246,4.0,9.0,90,0.00,,,-99.99,0.000000,,2013-03-23 09:53:00,
2013-03-23 02:03:00,20.0,18.0,-100.00,WSW,246,4.0,9.0,90,0.00,,,-99.99,0.000000,,2013-03-23 10:03:00,
2013-03-23 02:12:00,20.0,18.0,-100.00,WSW,246,4.0,9.0,90,0.00,,,-99.99,0.000000,,2013-03-23 10:12:00,
2013-03-23 02:43:00,15.0,12.0,-100.00,West,265,5.0,13.0,88,0.00,,,-99.99,0.000000,,2013-03-23 10:43:00,
2013-03-23 02:52:00,15.0,12.0,-100.00,West,265,5.0,13.0,88,0.00,,,-99.99,0.000000,,2013-03-23 10:52:00,
2013-03-23 03:02:00,15.0,12.0,-100.00,West,265,5.0,13.0,88,0.00,,,-99.99,0.000000,,2013-03-23 11:02:00,
2013-03-23 03:12:00,15.0,12.0,-100.00,West,265,5.0,13.0,88,0.00,,,-99.99,0.000000,,2013-03-23 11:12:00,
2013-03-23 03:42:00,12.0,9.0,-100.00,SW,236,3.0,11.0,86,0.00,,,0.00,0.000000,,2013-03-23 11:42:00,
2013-03-23 03:52:00,12.0,9.0,-100.00,SW,236,3.0,11.0,86,0.00,,,0.00,0.000000,,2013-03-23 11:52:00,
2013-03-23 04:02:00,12.0,9.0,-100.00,SW,236,3.0,11.0,86,0.00,,,0.00,0.000000,,2013-03-23 12:02:00,
2013-03-23 04:12:00,12.0,9.0,-100.00,SW,236,3.0,11.0,86,0.00,,,0.00,0.000000,,2013-03-23 12:12:00,
2013-03-23 04:43:00,10.0,7.0,-100.00,WSW,242,2.0,8.0,88,0.00,,,0.00,0.000000,,2013-03-23 12:43:00,
2013-03-23 04:53:00,10.0,7.0,-100.00,WSW,242,2.0,8.0,88,0.00,,,0.00,0.000000,,2013-03-23 12:53:00,
2013-03-23 05:02:00,10.0,7.0,-100.00,WSW,242,2.0,8.0,88,0.00,,,0.00,0.000000,,2013-03-23 13:02:00,
2013-03-23 05:11:00,10.0,7.0,-100.00,WSW,242,2.0,8.0,88,0.00,,,0.00,0.000000,,2013-03-23 13:11:00,
2013-03-23 05:43:00,8.0,5.0,-100.00,SW,236,3.0,11.0,87,0.00,,,0.00,0.000000,,2013-03-23 13:43:00,
2013-03-23 05:53:00,8.0,5.0,-100.00,SW,236,3.0,11.0,87,0.00,,,0.00,0.000000,,2013-03-23 13:53:00,
2013-03-23 06:03:00,8.0,5.0,-100.00,SW,236,3.0,11.0,87,0.00,,,0.00,0.000000,,2013-03-23 14:03:00,
2013-03-23 06:12:00,8.0,5.0,-100.00,SW,236,3.0,11.0,87,0.00,,,0.00,0.000000,,2013-03-23 14:12:00,
2013-03-23 06:43:00,5.0,2.0,-100.00,West,269,3.0,8.0,85,0.00,,,0.00,0.000000,,2013-03-23 14:43:00,
2013-03-23 06:52:00,5.0,2.0,-100.00,West,269,3.0,8.0,85,0.00,,,0.00,0.000000,,2013-03-23 14:52:00,
2013-03-23 07:02:00,5.0,2.0,-100.00,West,269,3.0,8.0,85,0.00,,,0.00,0.000000,,2013-03-23 15:02:00,
2013-03-23 07:11:00,5.0,2.0,-100.00,West,269,3.0,8.0,85,0.00,,,0.00,0.000000,,2013-03-23 15:11:00,
2013-03-23 07:44:00,3.0,-1.0,-100.00,West,273,2.0,9.0,82,0.00,,,0.00,0.000000,,2013-03-23 15:44:00,
2013-03-23 07:53:00,3.0,-1.0,-100.00,West,273,2.0,9.0,82,0.00,,,0.00,0.000000,,2013-03-23 15:53:00,
2013-03-23 08:03:00,3.0,-1.0,-100.00,West,273,2.0,9.0,82,0.00,,,0.00,0.000000,,2013-03-23 16:03:00,
2013-03-23 08:12:00,3.0,-1.0,-100.00,West,273,2.0,9.0,82,0.00,,,0.00,0.000000,,2013-03-23 16:12:00,
2013-03-23 08:43:00,0.0,-5.0,-100.00,SSW,208,2.0,9.0,77,0.00,,,0.00,2.000000,,2013-03-23 16:43:00,
2013-03-23 08:53:00,0.0,-5.0,-100.00,SSW,208,2.0,9.0,77,0.00,,,0.00,2.000000,,2013-03-23 16:53:00,
2013-03-23 09:02:00,0.0,-5.0,-100.00,SSW,208,2.0,9.0,77,0.00,,,0.00,2.000000,,2013-03-23 17:02:00,
2013-03-23 09:11:00,0.0,-5.0,-100.00,SSW,208,2.0,9.0,77,0.00,,,0.00,2.000000,,2013-03-23 17:11:00,
2013-03-23 09:43:00,-1.0,-8.0,-100.00,SW,222,1.0,4.0,73,0.00,,,0.00,12.000000,,2013-03-23 17:43:00,
2013-03-23 09:52:00,-1.0,-8.0,-100.00,SW,222,1.0,4.0,73,0.00,,,0.00,12.000000,,2013-03-23 17:52:00,
2013-03-23 10:02:00,-1.0,-8.0,-100.00,SW,222,1.0,4.0,73,0.00,,,0.00,12.000000,,2013-03-23 18:02:00,
2013-03-23 10:12:00,-1.0,-8.0,-100.00,SW,222,1.0,4.0,73,0.00,,,0.00,12.000000,,2013-03-23 18:12:00,
2013-03-23 10:43:00,2.0,-7.0,-100.00,SW,230,1.0,5.0,65,0.00,,,0.00,51.000000,,2013-03-23 18:43:00,
2013-03-23 10:53:00,2.0,-7.0,-100.00,SW,230,1.0,5.0,65,0.00,,,0.00,51.000000,,2013-03-23 18:53:00,
2013-03-23 11:02:00,2.0,-7.0,-100.00,SW,230,1.0,5.0,65,0.00,,,0.00,51.000000,,2013-03-23 19:02:00,
2013-03-23 11:12:00,2.0,-7.0,-100.00,SW,230,1.0,5.0,65,0.00,,,0.00,51.000000,,2013-03-23 19:12:00,
2013-03-23 11:43:00,3.0,-9.0,-100.00,SSW,213,2.0,6.0,55,0.00,,,0.00,88.000000,,2013-03-23 19:43:00,
2013-03-23 11:53:00,3.0,-9.0,-100.00,SSW,213,2.0,6.0,55,0.00,,,0.00,88.000000,,2013-03-23 19:53:00,
2013-03-23 12:02:00,3.0,-9.0,-100.00,SSW,213,2.0,6.0,55,0.00,,,0.00,88.000000,,2013-03-23 20:02:00,
2013-03-23 12:12:00,3.0,-9.0,-100.00,SSW,213,2.0,6.0,55,0.00,,,0.00,88.000000,,2013-03-23 20:12:00,
2013-03-23 12:43:00,5.0,-10.0,-100.00,SSW,208,2.0,6.0,50,0.00,,,0.00,130.000000,,2013-03-23 20:43:00,
2013-03-23 12:53:00,5.0,-10.0,-100.00,SSW,208,2.0,6.0,50,0.00,,,0.00,130.000000,,2013-03-23 20:53:00,
2013-03-23 13:02:00,5.0,-10.0,-100.00,SSW,208,2.0,6.0,50,0.00,,,0.00,130.000000,,2013-03-23 21:02:00,
2013-03-23 13:12:00,5.0,-10.0,-100.00,SSW,208,2.0,6.0,50,0.00,,,0.00,130.000000,,2013-03-23 21:12:00,
2013-03-23 13:43:00,9.0,-11.0,-100.00,SSW,199,2.0,8.0,39,0.00,,,0.00,204.000000,,2013-03-23 21:43:00,
2013-03-23 13:53:00,9.0,-11.0,-100.00,SSW,199,2.0,8.0,39,0.00,,,0.00,204.000000,,2013-03-23 21:53:00,
2013-03-23 14:42:00,12.0,-11.0,-100.00,SSW,198,2.0,6.0,34,0.00,,,0.00,252.000000,,2013-03-23 22:42:00,
2013-03-23 14:53:00,12.0,-11.0,-100.00,SSW,198,2.0,6.0,34,0.00,,,0.00,252.000000,,2013-03-23 22:53:00,
2013-03-23 15:43:00,11.0,-13.0,-100.00,South,185,3.0,6.0,32,-99.99,,,0.00,269.000000,,2013-03-23 23:43:00,
2013-03-23 15:52:00,11.0,-13.0,-100.00,South,185,3.0,6.0,32,-99.99,,,0.00,269.000000,,2013-03-23 23:52:00,
2013-03-23 16:02:00,11.0,-13.0,-100.00,South,185,3.0,6.0,32,-99.99,,,0.00,269.000000,,2013-03-24 00:02:00,
2013-03-23 16:12:00,11.0,-13.0,-100.00,South,185,3.0,6.0,32,-99.99,,,0.00,269.000000,,2013-03-24 00:12:00,
2013-03-23 16:42:00,10.0,-15.0,-100.00,SW,214,2.0,5.0,30,0.00,,,0.00,233.000000,,2013-03-24 00:42:00,
2013-03-23 16:52:00,10.0,-15.0,-100.00,SW,214,2.0,5.0,30,0.00,,,0.00,233.000000,,2013-03-24 00:52:00,
2013-03-23 17:02:00,10.0,-15.0,-100.00,SW,214,2.0,5.0,30,0.00,,,0.00,233.000000,,2013-03-24 01:02:00,
2013-03-23 17:12:00,10.0,-15.0,-100.00,SW,214,2.0,5.0,30,0.00,,,0.00,233.000000,,2013-03-24 01:12:00,
2013-03-23 17:43:00,11.0,-9.0,-100.00,SSW,198,2.0,7.0,40,0.00,,,0.00,169.000000,,2013-03-24 01:43:00,
2013-03-23 17:53:00,11.0,-9.0,-100.00,SSW,198,2.0,7.0,40,0.00,,,0.00,169.000000,,2013-03-24 01:53:00,
2013-03-23 18:02:00,11.0,-9.0,-100.00,SSW,198,2.0,7.0,40,0.00,,,0.00,169.000000,,2013-03-24 02:02:00,
2013-03-23 18:12:00,11.0,-9.0,-100.00,SSW,198,2.0,7.0,40,0.00,,,0.00,169.000000,,2013-03-24 02:12:00,
2013-03-23 18:43:00,6.0,-12.0,-100.00,South,179,2.0,6.0,43,0.00,,,0.00,100.000000,,2013-03-24 02:43:00,
2013-03-23 18:52:00,6.0,-12.0,-100.00,South,179,2.0,6.0,43,0.00,,,0.00,100.000000,,2013-03-24 02:52:00,
2013-03-23 19:02:00,6.0,-12.0,-100.00,South,179,2.0,6.0,43,0.00,,,0.00,100.000000,,2013-03-24 03:02:00,
2013-03-23 19:12:00,6.0,-12.0,-100.00,South,179,2.0,6.0,43,0.00,,,0.00,100.000000,,2013-03-24 03:12:00,
2013-03-23 19:43:00,1.0,-8.0,-100.00,SSE,168,0.0,5.0,64,0.00,,,0.00,25.000000,,2013-03-24 03:43:00,
2013-03-23 19:53:00,1.0,-8.0,-100.00,SSE,168,0.0,5.0,64,0.00,,,0.00,25.000000,,2013-03-24 03:53:00,
2013-03-23 20:02:00,1.0,-8.0,-100.00,SSE,168,0.0,5.0,64,0.00,,,0.00,25.000000,,2013-03-24 04:02:00,
2013-03-23 20:12:00,1.0,-8.0,-100.00,SSE,168,0.0,5.0,64,0.00,,,0.00,25.000000,,2013-03-24 04:12:00,
2013-03-23 20:43:00,-6.0,-12.0,-100.00,East,93,0.0,0.0,73,0.00,,,0.00,12.000000,,2013-03-24 04:43:00,
2013-03-23 20:53:00,-6.0,-12.0,-100.00,East,93,0.0,0.0,73,0.00,,,0.00,12.000000,,2013-03-24 04:53:00,
2013-03-23 21:43:00,-13.0,-17.0,-100.00,SSE,165,0.0,0.0,81,0.00,,,0.00,1.000000,,2013-03-24 05:43:00,
2013-03-23 21:52:00,-13.0,-17.0,-100.00,SSE,165,0.0,0.0,81,0.00,,,0.00,1.000000,,2013-03-24 05:52:00,
2013-03-23 22:42:00,-15.0,-19.0,-100.00,SE,130,0.0,1.0,82,-99.99,,,-99.99,0.000000,,2013-03-24 06:42:00,
2013-03-23 22:52:00,-15.0,-19.0,-100.00,SE,130,0.0,1.0,82,-99.99,,,-99.99,0.000000,,2013-03-24 06:52:00,
2013-03-23 23:42:00,-8.0,-12.0,-100.00,East,83,4.0,8.0,84,-99.99,,,0.00,0.000000,,2013-03-24 07:42:00,
2013-03-23 23:52:00,-8.0,-12.0,-100.00,East,83,4.0,8.0,84,-99.99,,,0.00,0.000000,,2013-03-24 07:52:00,